Overview Statistics Trail Chart Weather Telemetry Raw packets
 

This is the latest recevied weather packets stored in our database for station/object PI1GDA-1. If no packets are shown the sender has not sent any weather packets the latest 10 day(s).

<< 6 7 8 9 10 >>
Time Temp. Humidity Pressure Rain* Wind** Luminosity Snow
1777998938 15° C 70% 1010.7 hPa 0 mm - - -
1777998337 15° C 69% 1010.8 hPa 0 mm - - -
1777997736 15.56° C 68% 1010.9 hPa 0 mm - - -
1777997136 15.56° C 67% 1010.9 hPa 0 mm - - -
1777996535 15.56° C 68% 1010.7 hPa 0 mm - - -
1777995934 15.56° C 68% 1010.8 hPa 0 mm - - -
1777995333 15° C 68% 1010.9 hPa 0 mm - - -
1777994732 15° C 71% 1010.9 hPa 0 mm - - -
1777994132 15° C 68% 1011 hPa 0 mm - - -
1777993531 16.11° C 65% 1011 hPa 0 mm - - -
1777992930 15.56° C 67% 1011 hPa 0 mm - - -
1777992329 15.56° C 68% 1011 hPa 0 mm - - -
1777991729 15.56° C 68% 1011.2 hPa 0 mm - - -
1777991127 15.56° C 68% 1011 hPa 0 mm - - -
1777990526 15.56° C 68% 1011.1 hPa 0 mm - - -
1777989925 15.56° C 67% 1011.2 hPa 0 mm - - -
1777989323 15° C 69% 1011.3 hPa 0 mm - - -
1777988723 15.56° C 68% 1011.4 hPa 0 mm - - -
1777988122 15.56° C 69% 1011.6 hPa 0 mm - - -
1777987521 15.56° C 68% 1011.7 hPa 0 mm - - -
1777986921 15.56° C 69% 1011.7 hPa 0 mm - - -
1777986321 15.56° C 69% 1011.7 hPa 0 mm - - -
1777985720 16.11° C 68% 1011.7 hPa 0 mm - - -
1777985119 16.11° C 67% 1011.7 hPa 0 mm - - -
1777984519 15.56° C 69% 1011.7 hPa 0 mm - - -

* Rain latest hour (hover to see other rain measurements)
** Current wind speed in m/s (hover to see current wind gust speed)